首页
METAR-TAF:

METAR-TAF

机场 :

穆尔塔拉·穆罕默德国际机场

拉哥斯, 尼日利亚

纬度: 06-35N, 经度: 003-20E, 海拔: 40米

当前天气观测

该预报发布于1小时和1分钟前的07:00 UTC
风速2节,风向多变
温度 23°C
湿度 100%
气压 1016 hPa
能見度: 7000
散云层高于700英尺
毛毛雨

METAR: DNMM 230700Z VRB02KT 7000 DZ SCT007 23/23 Q1016 NOSIG

时间: 09:01 (08:01 UTC)

预报

该预报发布于4小时和11分钟前的03:50 UTC
预报有效从23日的 06点(UTC)到 24日的 12点(UTC)
风速2节,风向多变
能見度: 5000
散云层高于800英尺
小雨
短暂存在
从 23日的 06点(UTC)到 23日的 10点(UTC)
能見度: 3000
多云层高于800英尺
少量云层高于1800英尺, 积雨云.
雷暴, 雨
成为
从 23日的 10点(UTC)到 23日的 12点(UTC)
风速10节,风向南转西南
能見度: 8000
多云层高于1300英尺
少量云层高于2000英尺, 积雨云.
成为
从 23日的 18点(UTC)到 23日的 20点(UTC)
风速2节,风向多变
少量云层高于1000英尺

TAF: DNMM 230350Z 2306/2412 VRB02KT 5000 -RA SCT008 TEMPO 2306/2310 3000 TSRA BKN008 FEW018CB BECMG 2310/2312 21010KT 8000 NSW BKN013 FEW020CB BECMG 2318/2320 VRB02KT FEW010

超过4000个机场的气象观测和天气预报(METAR&TAF报告)。

可查询的气象台以黄色和红色小点在地图上表示。

将鼠标移到小点上方,可查看气象台名称。

然后点击查看天气观测和预报。

如需切换地图:点击带黑十字的绿色按钮放大地图;点击带横线的绿色按钮缩小地图;或者点击绿色箭头查看邻近地区的地图。


METAR-TAF: